sensor_id;sensor_type;location;lat;lon;timestamp;temperature;humidity
38241;DHT22;24037;49.536;8.500;2023-04-24T00:00:23;11.30;99.90
38241;DHT22;24037;49.536;8.500;2023-04-24T00:02:49;11.30;99.90
38241;DHT22;24037;49.536;8.500;2023-04-24T00:05:17;11.30;99.90
38241;DHT22;24037;49.536;8.500;2023-04-24T00:07:47;11.30;99.90
38241;DHT22;24037;49.536;8.500;2023-04-24T00:10:13;11.30;99.90
38241;DHT22;24037;49.536;8.500;2023-04-24T00:12:39;11.30;99.90
38241;DHT22;24037;49.536;8.500;2023-04-24T00:15:06;11.30;99.90
38241;DHT22;24037;49.536;8.500;2023-04-24T00:17:32;11.30;99.90
38241;DHT22;24037;49.536;8.500;2023-04-24T00:19:58;11.30;99.90
38241;DHT22;24037;49.536;8.500;2023-04-24T00:22:28;11.20;99.90
38241;DHT22;24037;49.536;8.500;2023-04-24T00:24:54;11.20;99.90
38241;DHT22;24037;49.536;8.500;2023-04-24T00:27:21;11.10;99.90
38241;DHT22;24037;49.536;8.500;2023-04-24T00:29:47;11.00;99.90
38241;DHT22;24037;49.536;8.500;2023-04-24T00:32:13;11.00;99.90
38241;DHT22;24037;49.536;8.500;2023-04-24T00:34:40;11.10;99.90
38241;DHT22;24037;49.536;8.500;2023-04-24T00:37:06;11.10;99.90
38241;DHT22;24037;49.536;8.500;2023-04-24T00:39:32;11.20;99.90
38241;DHT22;24037;49.536;8.500;2023-04-24T00:41:58;11.20;99.90
38241;DHT22;24037;49.536;8.500;2023-04-24T00:44:25;11.30;99.90
38241;DHT22;24037;49.536;8.500;2023-04-24T00:46:51;11.40;99.90
38241;DHT22;24037;49.536;8.500;2023-04-24T00:49:21;11.30;99.90
38241;DHT22;24037;49.536;8.500;2023-04-24T00:51:47;11.30;99.90
38241;DHT22;24037;49.536;8.500;2023-04-24T00:54:15;11.40;99.90
38241;DHT22;24037;49.536;8.500;2023-04-24T00:56:42;11.40;99.90
38241;DHT22;24037;49.536;8.500;2023-04-24T00:59:11;11.40;99.90
38241;DHT22;24037;49.536;8.500;2023-04-24T01:01:39;11.30;99.90
38241;DHT22;24037;49.536;8.500;2023-04-24T01:04:09;11.30;99.90
38241;DHT22;24037;49.536;8.500;2023-04-24T01:06:38;11.30;99.90
38241;DHT22;24037;49.536;8.500;2023-04-24T01:09:05;11.30;99.90
38241;DHT22;24037;49.536;8.500;2023-04-24T01:11:31;11.30;99.90
38241;DHT22;24037;49.536;8.500;2023-04-24T01:13:57;11.30;99.90
38241;DHT22;24037;49.536;8.500;2023-04-24T01:16:24;11.30;99.90
38241;DHT22;24037;49.536;8.500;2023-04-24T01:18:51;11.20;99.90
38241;DHT22;24037;49.536;8.500;2023-04-24T01:21:20;11.20;99.90
38241;DHT22;24037;49.536;8.500;2023-04-24T01:23:47;11.20;99.90
38241;DHT22;24037;49.536;8.500;2023-04-24T01:26:17;11.20;99.90
38241;DHT22;24037;49.536;8.500;2023-04-24T01:28:44;11.20;99.90
38241;DHT22;24037;49.536;8.500;2023-04-24T01:31:10;11.20;99.90
38241;DHT22;24037;49.536;8.500;2023-04-24T01:33:39;11.30;99.90
38241;DHT22;24037;49.536;8.500;2023-04-24T01:36:07;11.20;99.90
38241;DHT22;24037;49.536;8.500;2023-04-24T01:38:33;11.20;99.90
38241;DHT22;24037;49.536;8.500;2023-04-24T01:41:00;11.20;99.90
38241;DHT22;24037;49.536;8.500;2023-04-24T01:43:26;11.20;99.90
38241;DHT22;24037;49.536;8.500;2023-04-24T01:45:52;11.20;99.90
38241;DHT22;24037;49.536;8.500;2023-04-24T01:48:18;11.20;99.90
38241;DHT22;24037;49.536;8.500;2023-04-24T01:50:46;11.30;99.90
38241;DHT22;24037;49.536;8.500;2023-04-24T01:53:12;11.30;99.90
38241;DHT22;24037;49.536;8.500;2023-04-24T01:55:38;11.30;99.90
38241;DHT22;24037;49.536;8.500;2023-04-24T01:58:05;11.30;99.90
38241;DHT22;24037;49.536;8.500;2023-04-24T02:00:31;11.30;99.90
38241;DHT22;24037;49.536;8.500;2023-04-24T02:02:57;11.30;99.90
38241;DHT22;24037;49.536;8.500;2023-04-24T02:05:26;11.30;99.90
38241;DHT22;24037;49.536;8.500;2023-04-24T02:07:52;11.30;99.90
38241;DHT22;24037;49.536;8.500;2023-04-24T02:10:18;11.20;99.90
38241;DHT22;24037;49.536;8.500;2023-04-24T02:12:44;11.10;99.90
38241;DHT22;24037;49.536;8.500;2023-04-24T02:15:11;11.10;99.90
38241;DHT22;24037;49.536;8.500;2023-04-24T02:17:38;11.10;99.90
38241;DHT22;24037;49.536;8.500;2023-04-24T02:20:05;11.20;99.90
38241;DHT22;24037;49.536;8.500;2023-04-24T02:22:32;11.20;99.90
38241;DHT22;24037;49.536;8.500;2023-04-24T02:25:01;11.20;99.90
38241;DHT22;24037;49.536;8.500;2023-04-24T02:27:27;11.20;99.90
38241;DHT22;24037;49.536;8.500;2023-04-24T02:29:53;11.20;99.90
38241;DHT22;24037;49.536;8.500;2023-04-24T02:32:21;11.20;1.00
38241;DHT22;24037;49.536;8.500;2023-04-24T02:34:47;11.10;1.00
38241;DHT22;24037;49.536;8.500;2023-04-24T02:37:13;10.90;1.00
38241;DHT22;24037;49.536;8.500;2023-04-24T02:39:39;10.80;1.00
38241;DHT22;24037;49.536;8.500;2023-04-24T02:42:05;10.60;1.00
38241;DHT22;24037;49.536;8.500;2023-04-24T02:44:31;10.50;1.00
38241;DHT22;24037;49.536;8.500;2023-04-24T02:46:57;10.40;1.00
38241;DHT22;24037;49.536;8.500;2023-04-24T02:49:24;10.20;1.00
38241;DHT22;24037;49.536;8.500;2023-04-24T02:51:50;10.20;1.00
38241;DHT22;24037;49.536;8.500;2023-04-24T02:54:16;10.10;2.20
38241;DHT22;24037;49.536;8.500;2023-04-24T02:56:42;10.10;23.20
38241;DHT22;24037;49.536;8.500;2023-04-24T02:59:08;10.10;46.70
38241;DHT22;24037;49.536;8.500;2023-04-24T03:01:36;10.00;27.30
38241;DHT22;24037;49.536;8.500;2023-04-24T03:04:02;10.00;34.20
38241;DHT22;24037;49.536;8.500;2023-04-24T03:06:29;10.00;36.40
38241;DHT22;24037;49.536;8.500;2023-04-24T03:08:57;9.90;32.00
38241;DHT22;24037;49.536;8.500;2023-04-24T03:11:23;9.90;39.80
38241;DHT22;24037;49.536;8.500;2023-04-24T03:13:49;9.90;22.10
38241;DHT22;24037;49.536;8.500;2023-04-24T03:16:15;9.80;1.00
38241;DHT22;24037;49.536;8.500;2023-04-24T03:18:41;9.90;1.90
38241;DHT22;24037;49.536;8.500;2023-04-24T03:21:08;9.80;1.00
38241;DHT22;24037;49.536;8.500;2023-04-24T03:23:35;9.70;1.00
38241;DHT22;24037;49.536;8.500;2023-04-24T03:26:01;9.70;1.00
38241;DHT22;24037;49.536;8.500;2023-04-24T03:28:29;9.70;3.10
38241;DHT22;24037;49.536;8.500;2023-04-24T03:31:00;9.70;2.70
38241;DHT22;24037;49.536;8.500;2023-04-24T03:33:31;9.70;1.00
38241;DHT22;24037;49.536;8.500;2023-04-24T03:36:00;9.60;1.00
38241;DHT22;24037;49.536;8.500;2023-04-24T03:38:32;9.60;1.00
38241;DHT22;24037;49.536;8.500;2023-04-24T03:41:03;9.50;1.00
38241;DHT22;24037;49.536;8.500;2023-04-24T03:43:40;9.50;1.00
38241;DHT22;24037;49.536;8.500;2023-04-24T03:46:07;9.50;1.00
38241;DHT22;24037;49.536;8.500;2023-04-24T03:48:39;9.40;1.00
38241;DHT22;24037;49.536;8.500;2023-04-24T03:51:06;9.40;1.00
38241;DHT22;24037;49.536;8.500;2023-04-24T03:53:34;9.40;1.00
38241;DHT22;24037;49.536;8.500;2023-04-24T03:56:01;9.40;1.00
38241;DHT22;24037;49.536;8.500;2023-04-24T03:58:27;9.40;1.00
38241;DHT22;24037;49.536;8.500;2023-04-24T04:00:55;9.30;1.00
38241;DHT22;24037;49.536;8.500;2023-04-24T04:03:44;9.30;1.00
38241;DHT22;24037;49.536;8.500;2023-04-24T04:06:10;9.30;1.00
38241;DHT22;24037;49.536;8.500;2023-04-24T04:08:37;9.20;1.00
38241;DHT22;24037;49.536;8.500;2023-04-24T04:11:04;9.20;1.00
38241;DHT22;24037;49.536;8.500;2023-04-24T04:13:31;9.10;1.00
38241;DHT22;24037;49.536;8.500;2023-04-24T04:15:57;9.10;1.00
38241;DHT22;24037;49.536;8.500;2023-04-24T04:18:23;8.90;1.00
38241;DHT22;24037;49.536;8.500;2023-04-24T04:20:50;8.80;1.00
38241;DHT22;24037;49.536;8.500;2023-04-24T04:23:17;8.80;1.00
38241;DHT22;24037;49.536;8.500;2023-04-24T04:25:56;8.80;1.00
38241;DHT22;24037;49.536;8.500;2023-04-24T04:28:29;8.80;1.00
38241;DHT22;24037;49.536;8.500;2023-04-24T04:30:56;8.80;1.00
38241;DHT22;24037;49.536;8.500;2023-04-24T04:33:24;8.80;1.00
38241;DHT22;24037;49.536;8.500;2023-04-24T04:35:50;8.90;1.00
38241;DHT22;24037;49.536;8.500;2023-04-24T04:38:23;8.90;1.00
38241;DHT22;24037;49.536;8.500;2023-04-24T04:41:07;8.70;1.00
38241;DHT22;24037;49.536;8.500;2023-04-24T04:43:33;8.80;1.00
38241;DHT22;24037;49.536;8.500;2023-04-24T04:46:00;8.80;1.00
38241;DHT22;24037;49.536;8.500;2023-04-24T04:48:42;8.70;1.00
38241;DHT22;24037;49.536;8.500;2023-04-24T04:51:09;8.70;1.00
38241;DHT22;24037;49.536;8.500;2023-04-24T04:53:36;8.80;1.00
38241;DHT22;24037;49.536;8.500;2023-04-24T04:56:02;8.80;1.00
38241;DHT22;24037;49.536;8.500;2023-04-24T04:58:35;8.90;1.00
38241;DHT22;24037;49.536;8.500;2023-04-24T05:01:02;9.40;1.00
38241;DHT22;24037;49.536;8.500;2023-04-24T05:03:33;10.30;99.90
38241;DHT22;24037;49.536;8.500;2023-04-24T05:06:04;10.60;99.90
38241;DHT22;24037;49.536;8.500;2023-04-24T05:08:33;11.20;99.90
38241;DHT22;24037;49.536;8.500;2023-04-24T05:11:00;11.90;99.90
38241;DHT22;24037;49.536;8.500;2023-04-24T05:13:28;12.60;99.90
38241;DHT22;24037;49.536;8.500;2023-04-24T05:15:54;13.20;55.40
38241;DHT22;24037;49.536;8.500;2023-04-24T05:18:21;13.30;39.40
38241;DHT22;24037;49.536;8.500;2023-04-24T05:20:47;13.60;31.00
38241;DHT22;24037;49.536;8.500;2023-04-24T05:23:14;13.60;2.80
38241;DHT22;24037;49.536;8.500;2023-04-24T05:25:42;13.40;14.20
38241;DHT22;24037;49.536;8.500;2023-04-24T05:28:11;13.50;7.50
38241;DHT22;24037;49.536;8.500;2023-04-24T05:30:38;13.30;1.00
38241;DHT22;24037;49.536;8.500;2023-04-24T05:33:05;13.40;1.00
38241;DHT22;24037;49.536;8.500;2023-04-24T05:35:34;13.10;15.90
38241;DHT22;24037;49.536;8.500;2023-04-24T05:38:01;12.30;42.90
38241;DHT22;24037;49.536;8.500;2023-04-24T05:40:27;11.60;84.70
38241;DHT22;24037;49.536;8.500;2023-04-24T05:42:53;11.30;99.90
38241;DHT22;24037;49.536;8.500;2023-04-24T05:45:20;11.80;87.00
38241;DHT22;24037;49.536;8.500;2023-04-24T05:47:47;12.50;27.60
38241;DHT22;24037;49.536;8.500;2023-04-24T05:50:13;13.10;1.00
38241;DHT22;24037;49.536;8.500;2023-04-24T05:52:40;13.10;1.00
38241;DHT22;24037;49.536;8.500;2023-04-24T05:55:19;12.70;1.00
38241;DHT22;24037;49.536;8.500;2023-04-24T05:57:46;12.20;24.30
38241;DHT22;24037;49.536;8.500;2023-04-24T06:00:13;11.70;54.90
38241;DHT22;24037;49.536;8.500;2023-04-24T06:02:39;11.50;87.80
38241;DHT22;24037;49.536;8.500;2023-04-24T06:05:08;11.40;94.30
38241;DHT22;24037;49.536;8.500;2023-04-24T06:07:35;11.30;94.10
38241;DHT22;24037;49.536;8.500;2023-04-24T06:10:04;11.30;99.90
38241;DHT22;24037;49.536;8.500;2023-04-24T06:12:37;11.40;97.50
38241;DHT22;24037;49.536;8.500;2023-04-24T06:15:09;11.70;87.80
38241;DHT22;24037;49.536;8.500;2023-04-24T06:17:49;11.30;97.40
38241;DHT22;24037;49.536;8.500;2023-04-24T06:20:17;11.10;98.80
38241;DHT22;24037;49.536;8.500;2023-04-24T06:22:43;10.80;99.90
38241;DHT22;24037;49.536;8.500;2023-04-24T06:25:10;10.70;99.90
38241;DHT22;24037;49.536;8.500;2023-04-24T06:27:36;10.70;99.90
38241;DHT22;24037;49.536;8.500;2023-04-24T06:30:03;10.70;99.90
38241;DHT22;24037;49.536;8.500;2023-04-24T06:32:29;10.70;99.90
38241;DHT22;24037;49.536;8.500;2023-04-24T06:34:56;10.60;99.90
38241;DHT22;24037;49.536;8.500;2023-04-24T06:37:23;10.50;99.90
38241;DHT22;24037;49.536;8.500;2023-04-24T06:39:49;10.30;99.90
38241;DHT22;24037;49.536;8.500;2023-04-24T06:42:15;10.30;99.90
38241;DHT22;24037;49.536;8.500;2023-04-24T06:44:43;10.30;99.90
38241;DHT22;24037;49.536;8.500;2023-04-24T06:47:10;10.30;99.90
38241;DHT22;24037;49.536;8.500;2023-04-24T06:49:37;10.40;99.90
38241;DHT22;24037;49.536;8.500;2023-04-24T06:52:03;10.30;99.90
38241;DHT22;24037;49.536;8.500;2023-04-24T06:54:30;10.40;99.90
38241;DHT22;24037;49.536;8.500;2023-04-24T06:56:57;10.50;99.90
38241;DHT22;24037;49.536;8.500;2023-04-24T06:59:24;10.60;99.90
38241;DHT22;24037;49.536;8.500;2023-04-24T07:01:50;10.60;99.90
38241;DHT22;24037;49.536;8.500;2023-04-24T07:04:17;10.50;99.90
38241;DHT22;24037;49.536;8.500;2023-04-24T07:06:45;10.60;99.90
38241;DHT22;24037;49.536;8.500;2023-04-24T07:09:12;10.70;99.90
38241;DHT22;24037;49.536;8.500;2023-04-24T07:11:40;10.90;99.90
38241;DHT22;24037;49.536;8.500;2023-04-24T07:14:07;11.00;99.90
38241;DHT22;24037;49.536;8.500;2023-04-24T07:16:33;11.20;99.90
38241;DHT22;24037;49.536;8.500;2023-04-24T07:18:59;11.50;99.90
38241;DHT22;24037;49.536;8.500;2023-04-24T07:21:26;12.50;94.50
38241;DHT22;24037;49.536;8.500;2023-04-24T07:23:53;13.20;39.80
38241;DHT22;24037;49.536;8.500;2023-04-24T07:26:20;13.30;1.40
38241;DHT22;24037;49.536;8.500;2023-04-24T07:28:46;12.90;6.80
38241;DHT22;24037;49.536;8.500;2023-04-24T07:31:13;12.80;20.90
38241;DHT22;24037;49.536;8.500;2023-04-24T07:33:39;12.50;5.60
38241;DHT22;24037;49.536;8.500;2023-04-24T07:36:05;12.20;27.60
38241;DHT22;24037;49.536;8.500;2023-04-24T07:38:32;12.00;34.70
38241;DHT22;24037;49.536;8.500;2023-04-24T07:40:58;12.00;44.40
38241;DHT22;24037;49.536;8.500;2023-04-24T07:43:24;12.10;56.60
38241;DHT22;24037;49.536;8.500;2023-04-24T07:45:51;12.50;33.80
38241;DHT22;24037;49.536;8.500;2023-04-24T07:48:17;13.00;1.00
38241;DHT22;24037;49.536;8.500;2023-04-24T07:50:44;12.60;1.00
38241;DHT22;24037;49.536;8.500;2023-04-24T07:53:10;12.90;1.00
38241;DHT22;24037;49.536;8.500;2023-04-24T07:55:38;13.40;1.00
38241;DHT22;24037;49.536;8.500;2023-04-24T07:58:04;13.10;1.00
38241;DHT22;24037;49.536;8.500;2023-04-24T08:00:30;12.60;1.00
38241;DHT22;24037;49.536;8.500;2023-04-24T08:02:56;12.40;1.00
38241;DHT22;24037;49.536;8.500;2023-04-24T08:05:23;12.60;1.00
38241;DHT22;24037;49.536;8.500;2023-04-24T08:07:51;13.40;1.00
38241;DHT22;24037;49.536;8.500;2023-04-24T08:10:17;13.30;1.00
38241;DHT22;24037;49.536;8.500;2023-04-24T08:12:43;13.10;1.00
38241;DHT22;24037;49.536;8.500;2023-04-24T08:15:10;13.20;1.00
38241;DHT22;24037;49.536;8.500;2023-04-24T08:17:36;13.10;1.00
38241;DHT22;24037;49.536;8.500;2023-04-24T08:20:03;13.00;1.00
38241;DHT22;24037;49.536;8.500;2023-04-24T08:22:31;12.90;1.00
38241;DHT22;24037;49.536;8.500;2023-04-24T08:24:59;12.80;1.00
38241;DHT22;24037;49.536;8.500;2023-04-24T08:27:26;12.60;1.00
38241;DHT22;24037;49.536;8.500;2023-04-24T08:29:56;12.40;1.00
38241;DHT22;24037;49.536;8.500;2023-04-24T08:32:23;12.50;1.00
38241;DHT22;24037;49.536;8.500;2023-04-24T08:34:49;13.10;1.00
38241;DHT22;24037;49.536;8.500;2023-04-24T08:37:15;13.50;1.00
38241;DHT22;24037;49.536;8.500;2023-04-24T08:39:41;13.40;1.00
38241;DHT22;24037;49.536;8.500;2023-04-24T08:42:08;13.70;1.00
38241;DHT22;24037;49.536;8.500;2023-04-24T08:44:36;14.20;1.00
38241;DHT22;24037;49.536;8.500;2023-04-24T08:47:02;14.00;1.00
38241;DHT22;24037;49.536;8.500;2023-04-24T08:49:29;14.00;1.00
38241;DHT22;24037;49.536;8.500;2023-04-24T08:51:56;14.30;1.00
38241;DHT22;24037;49.536;8.500;2023-04-24T08:54:22;14.40;1.00
38241;DHT22;24037;49.536;8.500;2023-04-24T08:56:49;13.70;1.00
38241;DHT22;24037;49.536;8.500;2023-04-24T08:59:16;13.30;1.00
38241;DHT22;24037;49.536;8.500;2023-04-24T09:01:45;12.60;1.00
38241;DHT22;24037;49.536;8.500;2023-04-24T09:04:14;12.60;1.00
38241;DHT22;24037;49.536;8.500;2023-04-24T09:06:42;12.70;1.00
38241;DHT22;24037;49.536;8.500;2023-04-24T09:09:10;12.60;1.00
38241;DHT22;24037;49.536;8.500;2023-04-24T09:11:37;12.40;1.00
38241;DHT22;24037;49.536;8.500;2023-04-24T09:14:03;12.30;1.00
38241;DHT22;24037;49.536;8.500;2023-04-24T09:16:31;12.30;1.00
38241;DHT22;24037;49.536;8.500;2023-04-24T09:18:59;12.50;1.00
38241;DHT22;24037;49.536;8.500;2023-04-24T09:21:34;12.70;1.00
38241;DHT22;24037;49.536;8.500;2023-04-24T09:24:08;12.70;1.00
38241;DHT22;24037;49.536;8.500;2023-04-24T09:26:40;13.00;1.00
38241;DHT22;24037;49.536;8.500;2023-04-24T09:29:06;13.00;1.00
38241;DHT22;24037;49.536;8.500;2023-04-24T09:31:32;12.90;1.00
38241;DHT22;24037;49.536;8.500;2023-04-24T09:34:03;12.60;1.00
38241;DHT22;24037;49.536;8.500;2023-04-24T09:36:33;12.50;1.00
38241;DHT22;24037;49.536;8.500;2023-04-24T09:39:04;12.40;1.00
38241;DHT22;24037;49.536;8.500;2023-04-24T09:41:32;12.50;1.00
38241;DHT22;24037;49.536;8.500;2023-04-24T09:44:31;12.50;1.00
38241;DHT22;24037;49.536;8.500;2023-04-24T09:47:00;12.40;1.00
38241;DHT22;24037;49.536;8.500;2023-04-24T09:49:27;12.20;1.00
38241;DHT22;24037;49.536;8.500;2023-04-24T09:52:10;12.20;1.00
38241;DHT22;24037;49.536;8.500;2023-04-24T09:54:38;12.10;1.00
38241;DHT22;24037;49.536;8.500;2023-04-24T09:57:05;11.90;1.00
38241;DHT22;24037;49.536;8.500;2023-04-24T09:59:33;11.90;1.00
38241;DHT22;24037;49.536;8.500;2023-04-24T10:02:01;11.80;1.00
38241;DHT22;24037;49.536;8.500;2023-04-24T10:04:29;11.80;1.00
38241;DHT22;24037;49.536;8.500;2023-04-24T10:06:56;11.90;1.00
38241;DHT22;24037;49.536;8.500;2023-04-24T10:09:24;12.00;1.00
38241;DHT22;24037;49.536;8.500;2023-04-24T10:11:52;12.10;1.00
38241;DHT22;24037;49.536;8.500;2023-04-24T10:14:23;12.60;1.00
38241;DHT22;24037;49.536;8.500;2023-04-24T10:16:53;13.20;1.00
38241;DHT22;24037;49.536;8.500;2023-04-24T10:19:20;13.40;1.00
38241;DHT22;24037;49.536;8.500;2023-04-24T10:21:46;13.10;1.00
38241;DHT22;24037;49.536;8.500;2023-04-24T10:24:17;12.90;1.00
38241;DHT22;24037;49.536;8.500;2023-04-24T10:26:45;12.80;1.00
38241;DHT22;24037;49.536;8.500;2023-04-24T10:29:13;13.30;1.00
38241;DHT22;24037;49.536;8.500;2023-04-24T10:31:41;13.90;1.00
38241;DHT22;24037;49.536;8.500;2023-04-24T10:34:09;14.10;1.00
38241;DHT22;24037;49.536;8.500;2023-04-24T10:36:39;14.70;1.00
38241;DHT22;24037;49.536;8.500;2023-04-24T10:39:09;15.00;1.00
38241;DHT22;24037;49.536;8.500;2023-04-24T10:41:37;14.80;1.00
38241;DHT22;24037;49.536;8.500;2023-04-24T10:44:07;14.40;1.00
38241;DHT22;24037;49.536;8.500;2023-04-24T10:46:34;13.80;1.00
38241;DHT22;24037;49.536;8.500;2023-04-24T10:49:05;13.70;1.00
38241;DHT22;24037;49.536;8.500;2023-04-24T10:51:51;13.20;1.00
38241;DHT22;24037;49.536;8.500;2023-04-24T10:54:30;13.00;1.00
38241;DHT22;24037;49.536;8.500;2023-04-24T10:59:45;12.70;1.00
38241;DHT22;24037;49.536;8.500;2023-04-24T11:02:14;12.80;1.00
38241;DHT22;24037;49.536;8.500;2023-04-24T11:04:41;12.90;1.00
38241;DHT22;24037;49.536;8.500;2023-04-24T11:07:11;12.80;1.00
38241;DHT22;24037;49.536;8.500;2023-04-24T11:09:37;12.80;1.00
38241;DHT22;24037;49.536;8.500;2023-04-24T11:12:10;12.90;1.00
38241;DHT22;24037;49.536;8.500;2023-04-24T11:17:32;12.90;1.00
38241;DHT22;24037;49.536;8.500;2023-04-24T11:20:04;12.90;1.00
38241;DHT22;24037;49.536;8.500;2023-04-24T11:22:34;12.80;1.00
38241;DHT22;24037;49.536;8.500;2023-04-24T11:25:03;12.80;1.00
38241;DHT22;24037;49.536;8.500;2023-04-24T11:27:41;12.80;1.00
38241;DHT22;24037;49.536;8.500;2023-04-24T11:30:09;12.60;1.00
38241;DHT22;24037;49.536;8.500;2023-04-24T11:32:40;12.80;1.00
38241;DHT22;24037;49.536;8.500;2023-04-24T11:35:20;12.90;1.00
38241;DHT22;24037;49.536;8.500;2023-04-24T11:37:49;13.00;1.00
38241;DHT22;24037;49.536;8.500;2023-04-24T11:40:17;13.00;1.00
38241;DHT22;24037;49.536;8.500;2023-04-24T11:42:50;13.00;1.00
38241;DHT22;24037;49.536;8.500;2023-04-24T11:45:21;12.90;1.00
38241;DHT22;24037;49.536;8.500;2023-04-24T11:47:48;13.00;1.00
38241;DHT22;24037;49.536;8.500;2023-04-24T11:50:16;12.90;1.00
38241;DHT22;24037;49.536;8.500;2023-04-24T11:52:45;13.00;1.00
38241;DHT22;24037;49.536;8.500;2023-04-24T11:57:43;13.00;1.00
38241;DHT22;24037;49.536;8.500;2023-04-24T12:00:19;12.90;1.00
38241;DHT22;24037;49.536;8.500;2023-04-24T12:02:47;13.00;1.00
38241;DHT22;24037;49.536;8.500;2023-04-24T12:05:27;13.30;1.00
38241;DHT22;24037;49.536;8.500;2023-04-24T12:07:53;13.40;1.00
38241;DHT22;24037;49.536;8.500;2023-04-24T12:10:24;13.50;1.00
38241;DHT22;24037;49.536;8.500;2023-04-24T12:12:51;14.00;1.00
38241;DHT22;24037;49.536;8.500;2023-04-24T12:15:21;14.30;1.00
38241;DHT22;24037;49.536;8.500;2023-04-24T12:17:50;14.40;1.00
38241;DHT22;24037;49.536;8.500;2023-04-24T12:20:17;13.90;1.00
38241;DHT22;24037;49.536;8.500;2023-04-24T12:22:48;13.90;1.00
38241;DHT22;24037;49.536;8.500;2023-04-24T12:25:16;14.00;1.00
38241;DHT22;24037;49.536;8.500;2023-04-24T12:27:44;13.80;1.00
38241;DHT22;24037;49.536;8.500;2023-04-24T12:30:15;13.90;1.00
38241;DHT22;24037;49.536;8.500;2023-04-24T12:32:47;13.70;1.00
38241;DHT22;24037;49.536;8.500;2023-04-24T12:35:19;13.40;1.00
38241;DHT22;24037;49.536;8.500;2023-04-24T12:37:46;13.40;1.00
38241;DHT22;24037;49.536;8.500;2023-04-24T12:40:13;13.40;1.00
38241;DHT22;24037;49.536;8.500;2023-04-24T12:42:47;13.40;1.00
38241;DHT22;24037;49.536;8.500;2023-04-24T12:45:14;13.40;1.00
38241;DHT22;24037;49.536;8.500;2023-04-24T12:47:42;13.50;1.00
38241;DHT22;24037;49.536;8.500;2023-04-24T12:50:10;13.40;1.00
38241;DHT22;24037;49.536;8.500;2023-04-24T12:52:37;13.40;1.00
38241;DHT22;24037;49.536;8.500;2023-04-24T12:55:03;13.70;1.00
38241;DHT22;24037;49.536;8.500;2023-04-24T12:57:31;13.60;1.00
38241;DHT22;24037;49.536;8.500;2023-04-24T12:59:58;13.60;1.00
38241;DHT22;24037;49.536;8.500;2023-04-24T13:02:25;13.80;1.00
38241;DHT22;24037;49.536;8.500;2023-04-24T13:04:52;13.80;1.00
38241;DHT22;24037;49.536;8.500;2023-04-24T13:07:19;14.00;1.00
38241;DHT22;24037;49.536;8.500;2023-04-24T13:09:47;13.80;1.00
38241;DHT22;24037;49.536;8.500;2023-04-24T13:12:14;13.60;1.00
38241;DHT22;24037;49.536;8.500;2023-04-24T13:14:41;13.30;1.00
38241;DHT22;24037;49.536;8.500;2023-04-24T13:17:07;13.10;1.00
38241;DHT22;24037;49.536;8.500;2023-04-24T13:19:37;13.10;1.00
38241;DHT22;24037;49.536;8.500;2023-04-24T13:22:04;13.40;1.00
38241;DHT22;24037;49.536;8.500;2023-04-24T13:24:31;13.70;1.00
38241;DHT22;24037;49.536;8.500;2023-04-24T13:26:58;13.90;1.00
38241;DHT22;24037;49.536;8.500;2023-04-24T13:29:24;14.00;1.00
38241;DHT22;24037;49.536;8.500;2023-04-24T13:31:51;13.90;1.00
38241;DHT22;24037;49.536;8.500;2023-04-24T13:34:17;14.30;1.00
38241;DHT22;24037;49.536;8.500;2023-04-24T13:36:44;14.50;1.00
38241;DHT22;24037;49.536;8.500;2023-04-24T13:39:10;13.90;1.00
38241;DHT22;24037;49.536;8.500;2023-04-24T13:41:36;13.90;1.00
38241;DHT22;24037;49.536;8.500;2023-04-24T13:44:03;14.10;1.00
38241;DHT22;24037;49.536;8.500;2023-04-24T13:46:30;14.40;1.00
38241;DHT22;24037;49.536;8.500;2023-04-24T13:48:56;14.40;1.00
38241;DHT22;24037;49.536;8.500;2023-04-24T13:51:24;14.30;1.00
38241;DHT22;24037;49.536;8.500;2023-04-24T13:53:53;14.40;1.00
38241;DHT22;24037;49.536;8.500;2023-04-24T13:56:19;14.10;1.00
38241;DHT22;24037;49.536;8.500;2023-04-24T13:58:46;13.70;1.00
38241;DHT22;24037;49.536;8.500;2023-04-24T14:01:12;13.60;1.00
38241;DHT22;24037;49.536;8.500;2023-04-24T14:03:39;13.60;1.00
38241;DHT22;24037;49.536;8.500;2023-04-24T14:06:05;13.80;1.00
38241;DHT22;24037;49.536;8.500;2023-04-24T14:08:32;13.80;1.00
38241;DHT22;24037;49.536;8.500;2023-04-24T14:10:59;13.70;1.00
38241;DHT22;24037;49.536;8.500;2023-04-24T14:13:25;13.60;1.00
38241;DHT22;24037;49.536;8.500;2023-04-24T14:15:51;13.60;1.00
38241;DHT22;24037;49.536;8.500;2023-04-24T14:18:18;13.70;1.00
38241;DHT22;24037;49.536;8.500;2023-04-24T14:20:45;13.80;1.00
38241;DHT22;24037;49.536;8.500;2023-04-24T14:23:11;13.70;1.00
38241;DHT22;24037;49.536;8.500;2023-04-24T14:25:37;13.50;1.00
38241;DHT22;24037;49.536;8.500;2023-04-24T14:28:03;13.40;1.00
38241;DHT22;24037;49.536;8.500;2023-04-24T14:30:31;13.20;1.00
38241;DHT22;24037;49.536;8.500;2023-04-24T14:32:57;13.30;1.00
38241;DHT22;24037;49.536;8.500;2023-04-24T14:35:23;13.60;1.00
38241;DHT22;24037;49.536;8.500;2023-04-24T14:37:50;13.80;1.00
38241;DHT22;24037;49.536;8.500;2023-04-24T14:40:17;14.30;1.00
38241;DHT22;24037;49.536;8.500;2023-04-24T14:42:43;14.30;1.00
38241;DHT22;24037;49.536;8.500;2023-04-24T14:45:09;14.50;1.00
38241;DHT22;24037;49.536;8.500;2023-04-24T14:47:36;14.80;1.00
38241;DHT22;24037;49.536;8.500;2023-04-24T14:50:03;14.70;1.00
38241;DHT22;24037;49.536;8.500;2023-04-24T14:52:29;14.40;1.00
38241;DHT22;24037;49.536;8.500;2023-04-24T14:54:55;14.50;1.00
38241;DHT22;24037;49.536;8.500;2023-04-24T14:57:22;14.40;1.00
38241;DHT22;24037;49.536;8.500;2023-04-24T14:59:48;14.30;1.00
38241;DHT22;24037;49.536;8.500;2023-04-24T15:02:17;13.80;1.00
38241;DHT22;24037;49.536;8.500;2023-04-24T15:04:43;13.50;1.00
38241;DHT22;24037;49.536;8.500;2023-04-24T15:07:09;13.40;1.00
38241;DHT22;24037;49.536;8.500;2023-04-24T15:09:36;13.30;1.00
38241;DHT22;24037;49.536;8.500;2023-04-24T15:12:02;13.30;1.00
38241;DHT22;24037;49.536;8.500;2023-04-24T15:14:28;13.30;1.00
38241;DHT22;24037;49.536;8.500;2023-04-24T15:16:54;13.20;1.00
38241;DHT22;24037;49.536;8.500;2023-04-24T15:19:20;12.90;1.00
38241;DHT22;24037;49.536;8.500;2023-04-24T15:21:49;12.90;1.00
38241;DHT22;24037;49.536;8.500;2023-04-24T15:24:15;13.00;1.00
38241;DHT22;24037;49.536;8.500;2023-04-24T15:26:42;13.00;1.00
38241;DHT22;24037;49.536;8.500;2023-04-24T15:29:08;13.30;1.00
38241;DHT22;24037;49.536;8.500;2023-04-24T15:31:34;13.40;1.00
38241;DHT22;24037;49.536;8.500;2023-04-24T15:34:05;13.80;1.00
38241;DHT22;24037;49.536;8.500;2023-04-24T15:36:31;14.10;1.00
38241;DHT22;24037;49.536;8.500;2023-04-24T15:38:58;14.30;1.00
38241;DHT22;24037;49.536;8.500;2023-04-24T15:41:24;14.40;1.00
38241;DHT22;24037;49.536;8.500;2023-04-24T15:43:50;14.30;1.00
38241;DHT22;24037;49.536;8.500;2023-04-24T15:46:16;14.30;1.00
38241;DHT22;24037;49.536;8.500;2023-04-24T15:48:42;14.30;1.00
38241;DHT22;24037;49.536;8.500;2023-04-24T15:51:09;14.30;1.00
38241;DHT22;24037;49.536;8.500;2023-04-24T15:53:35;14.10;1.00